sensor_id;sensor_type;location;lat;lon;timestamp;temperature;humidity
53643;DHT22;39546;45.534;12.048;2023-02-15T00:00:13;8.30;78.80
53643;DHT22;39546;45.534;12.048;2023-02-15T00:06:15;8.30;78.70
53643;DHT22;39546;45.534;12.048;2023-02-15T00:12:17;8.20;78.50
53643;DHT22;39546;45.534;12.048;2023-02-15T00:18:19;8.20;78.60
53643;DHT22;39546;45.534;12.048;2023-02-15T00:24:21;8.30;78.60
53643;DHT22;39546;45.534;12.048;2023-02-15T00:30:23;8.20;78.40
53643;DHT22;39546;45.534;12.048;2023-02-15T00:36:25;8.20;78.40
53643;DHT22;39546;45.534;12.048;2023-02-15T00:42:27;8.10;78.40
53643;DHT22;39546;45.534;12.048;2023-02-15T00:48:30;8.00;78.80
53643;DHT22;39546;45.534;12.048;2023-02-15T00:54:32;7.80;78.80
53643;DHT22;39546;45.534;12.048;2023-02-15T01:00:36;7.60;79.60
53643;DHT22;39546;45.534;12.048;2023-02-15T01:06:39;7.70;79.20
53643;DHT22;39546;45.534;12.048;2023-02-15T01:12:41;7.60;79.10
53643;DHT22;39546;45.534;12.048;2023-02-15T01:18:43;7.70;79.10
53643;DHT22;39546;45.534;12.048;2023-02-15T01:24:45;7.60;79.00
53643;DHT22;39546;45.534;12.048;2023-02-15T01:30:47;7.50;79.00
53643;DHT22;39546;45.534;12.048;2023-02-15T01:36:51;7.50;78.90
53643;DHT22;39546;45.534;12.048;2023-02-15T01:42:55;7.50;78.70
53643;DHT22;39546;45.534;12.048;2023-02-15T01:49:03;7.50;78.60
53643;DHT22;39546;45.534;12.048;2023-02-15T01:55:08;7.50;78.50
53643;DHT22;39546;45.534;12.048;2023-02-15T02:01:11;7.40;78.30
53643;DHT22;39546;45.534;12.048;2023-02-15T02:07:15;7.40;78.30
53643;DHT22;39546;45.534;12.048;2023-02-15T02:13:17;7.30;78.80
53643;DHT22;39546;45.534;12.048;2023-02-15T02:38:27;7.20;78.70
53643;DHT22;39546;45.534;12.048;2023-02-15T02:50:29;6.90;79.10
53643;DHT22;39546;45.534;12.048;2023-02-15T02:56:41;6.90;79.10
53643;DHT22;39546;45.534;12.048;2023-02-15T03:02:46;6.90;79.10
53643;DHT22;39546;45.534;12.048;2023-02-15T03:08:53;6.90;78.90
53643;DHT22;39546;45.534;12.048;2023-02-15T03:15:05;6.80;78.80
53643;DHT22;39546;45.534;12.048;2023-02-15T03:21:09;6.80;78.80
53643;DHT22;39546;45.534;12.048;2023-02-15T03:27:27;6.80;78.60
53643;DHT22;39546;45.534;12.048;2023-02-15T03:33:30;6.70;78.80
53643;DHT22;39546;45.534;12.048;2023-02-15T03:39:40;6.70;78.70
53643;DHT22;39546;45.534;12.048;2023-02-15T03:46:11;6.90;78.40
53643;DHT22;39546;45.534;12.048;2023-02-15T03:52:15;6.90;78.10
53643;DHT22;39546;45.534;12.048;2023-02-15T03:58:18;6.90;78.00
53643;DHT22;39546;45.534;12.048;2023-02-15T04:04:46;7.00;77.80
53643;DHT22;39546;45.534;12.048;2023-02-15T04:10:48;7.00;77.60
53643;DHT22;39546;45.534;12.048;2023-02-15T04:16:58;7.10;77.40
53643;DHT22;39546;45.534;12.048;2023-02-15T04:23:00;7.20;77.10
53643;DHT22;39546;45.534;12.048;2023-02-15T04:29:22;7.30;77.00
53643;DHT22;39546;45.534;12.048;2023-02-15T04:35:24;7.20;76.80
53643;DHT22;39546;45.534;12.048;2023-02-15T04:41:27;7.40;76.90
53643;DHT22;39546;45.534;12.048;2023-02-15T04:47:29;7.40;76.60
53643;DHT22;39546;45.534;12.048;2023-02-15T04:53:31;7.40;76.40
53643;DHT22;39546;45.534;12.048;2023-02-15T04:59:34;7.10;76.80
53643;DHT22;39546;45.534;12.048;2023-02-15T05:05:36;7.20;76.80
53643;DHT22;39546;45.534;12.048;2023-02-15T05:11:38;7.40;77.60
53643;DHT22;39546;45.534;12.048;2023-02-15T05:17:40;7.60;77.70
53643;DHT22;39546;45.534;12.048;2023-02-15T05:23:42;7.80;77.90
53643;DHT22;39546;45.534;12.048;2023-02-15T05:29:44;7.70;77.60
53643;DHT22;39546;45.534;12.048;2023-02-15T05:35:47;7.40;77.80
53643;DHT22;39546;45.534;12.048;2023-02-15T05:41:49;7.50;77.60
53643;DHT22;39546;45.534;12.048;2023-02-15T05:47:51;7.50;77.10
53643;DHT22;39546;45.534;12.048;2023-02-15T05:53:53;7.50;76.70
53643;DHT22;39546;45.534;12.048;2023-02-15T05:59:55;7.50;76.40
53643;DHT22;39546;45.534;12.048;2023-02-15T06:05:57;7.50;76.10
53643;DHT22;39546;45.534;12.048;2023-02-15T06:11:59;7.50;75.80
53643;DHT22;39546;45.534;12.048;2023-02-15T06:18:01;7.40;76.10
53643;DHT22;39546;45.534;12.048;2023-02-15T06:24:04;7.50;75.80
53643;DHT22;39546;45.534;12.048;2023-02-15T06:30:07;7.40;75.30
53643;DHT22;39546;45.534;12.048;2023-02-15T06:36:09;7.30;75.90
53643;DHT22;39546;45.534;12.048;2023-02-15T06:42:11;7.50;75.70
53643;DHT22;39546;45.534;12.048;2023-02-15T06:48:13;7.50;75.50
53643;DHT22;39546;45.534;12.048;2023-02-15T06:54:15;7.50;75.40
53643;DHT22;39546;45.534;12.048;2023-02-15T07:00:18;7.40;75.80
53643;DHT22;39546;45.534;12.048;2023-02-15T07:06:20;7.50;75.80
53643;DHT22;39546;45.534;12.048;2023-02-15T07:12:23;7.50;75.90
53643;DHT22;39546;45.534;12.048;2023-02-15T07:18:43;7.60;75.80
53643;DHT22;39546;45.534;12.048;2023-02-15T07:24:45;7.60;75.90
53643;DHT22;39546;45.534;12.048;2023-02-15T07:30:49;7.70;76.10
53643;DHT22;39546;45.534;12.048;2023-02-15T07:36:51;8.00;76.40
53643;DHT22;39546;45.534;12.048;2023-02-15T07:42:57;8.10;76.40
53643;DHT22;39546;45.534;12.048;2023-02-15T07:49:00;8.20;76.40
53643;DHT22;39546;45.534;12.048;2023-02-15T07:55:02;8.20;76.50
53643;DHT22;39546;45.534;12.048;2023-02-15T08:01:05;8.30;76.70
53643;DHT22;39546;45.534;12.048;2023-02-15T08:07:07;8.30;76.90
53643;DHT22;39546;45.534;12.048;2023-02-15T08:13:09;8.10;77.80
53643;DHT22;39546;45.534;12.048;2023-02-15T08:19:17;8.00;78.20
53643;DHT22;39546;45.534;12.048;2023-02-15T08:25:19;7.90;78.80
53643;DHT22;39546;45.534;12.048;2023-02-15T08:31:22;7.70;79.40
53643;DHT22;39546;45.534;12.048;2023-02-15T08:37:24;7.80;79.80
53643;DHT22;39546;45.534;12.048;2023-02-15T08:43:27;8.00;80.40
53643;DHT22;39546;45.534;12.048;2023-02-15T08:49:29;8.10;80.50
53643;DHT22;39546;45.534;12.048;2023-02-15T08:55:32;8.00;80.60
53643;DHT22;39546;45.534;12.048;2023-02-15T09:01:34;8.10;81.30
53643;DHT22;39546;45.534;12.048;2023-02-15T09:07:36;8.40;81.30
53643;DHT22;39546;45.534;12.048;2023-02-15T09:13:39;8.70;81.70
53643;DHT22;39546;45.534;12.048;2023-02-15T09:19:41;8.90;82.10
53643;DHT22;39546;45.534;12.048;2023-02-15T09:25:43;9.20;82.10
53643;DHT22;39546;45.534;12.048;2023-02-15T09:31:47;9.40;82.20
53643;DHT22;39546;45.534;12.048;2023-02-15T09:37:50;9.50;82.70
53643;DHT22;39546;45.534;12.048;2023-02-15T10:21:58;9.90;83.50
53643;DHT22;39546;45.534;12.048;2023-02-15T10:28:13;10.00;83.80
53643;DHT22;39546;45.534;12.048;2023-02-15T10:34:48;10.20;84.10
53643;DHT22;39546;45.534;12.048;2023-02-15T11:06:18;11.10;81.10
53643;DHT22;39546;45.534;12.048;2023-02-15T11:12:24;11.30;81.60
53643;DHT22;39546;45.534;12.048;2023-02-15T11:18:37;11.60;80.50
53643;DHT22;39546;45.534;12.048;2023-02-15T11:24:43;11.90;80.70
53643;DHT22;39546;45.534;12.048;2023-02-15T11:30:54;12.20;81.00
53643;DHT22;39546;45.534;12.048;2023-02-15T11:37:01;12.50;80.40
53643;DHT22;39546;45.534;12.048;2023-02-15T11:43:34;12.70;80.20
53643;DHT22;39546;45.534;12.048;2023-02-15T11:49:38;13.10;78.70
53643;DHT22;39546;45.534;12.048;2023-02-15T11:55:45;13.30;77.70
53643;DHT22;39546;45.534;12.048;2023-02-15T12:01:48;13.50;78.00
53643;DHT22;39546;45.534;12.048;2023-02-15T12:08:02;13.60;76.70
53643;DHT22;39546;45.534;12.048;2023-02-15T12:14:10;13.80;76.20
53643;DHT22;39546;45.534;12.048;2023-02-15T12:26:32;13.90;74.30
53643;DHT22;39546;45.534;12.048;2023-02-15T12:32:49;14.00;74.40
53643;DHT22;39546;45.534;12.048;2023-02-15T12:45:25;14.30;74.30
53643;DHT22;39546;45.534;12.048;2023-02-15T12:51:27;14.20;74.30
53643;DHT22;39546;45.534;12.048;2023-02-15T12:57:32;14.30;73.60
53643;DHT22;39546;45.534;12.048;2023-02-15T13:03:36;14.30;71.60
53643;DHT22;39546;45.534;12.048;2023-02-15T13:09:39;14.30;70.80
53643;DHT22;39546;45.534;12.048;2023-02-15T13:15:46;14.60;71.40
53643;DHT22;39546;45.534;12.048;2023-02-15T13:21:51;14.70;70.70
53643;DHT22;39546;45.534;12.048;2023-02-15T13:28:04;14.80;69.80
53643;DHT22;39546;45.534;12.048;2023-02-15T13:34:14;15.00;68.10
53643;DHT22;39546;45.534;12.048;2023-02-15T13:46:33;15.10;66.70
53643;DHT22;39546;45.534;12.048;2023-02-15T13:52:48;15.20;66.40
53643;DHT22;39546;45.534;12.048;2023-02-15T13:59:00;15.20;66.30
53643;DHT22;39546;45.534;12.048;2023-02-15T14:05:25;15.20;65.50
53643;DHT22;39546;45.534;12.048;2023-02-15T14:30:34;15.60;64.90
53643;DHT22;39546;45.534;12.048;2023-02-15T14:36:36;15.70;65.20
53643;DHT22;39546;45.534;12.048;2023-02-15T14:48:49;16.00;65.50
53643;DHT22;39546;45.534;12.048;2023-02-15T14:54:54;16.30;64.70
53643;DHT22;39546;45.534;12.048;2023-02-15T15:01:07;16.60;63.70
53643;DHT22;39546;45.534;12.048;2023-02-15T15:07:26;17.00;63.30
53643;DHT22;39546;45.534;12.048;2023-02-15T15:25:56;18.50;62.00
53643;DHT22;39546;45.534;12.048;2023-02-15T15:32:00;18.80;62.00
53643;DHT22;39546;45.534;12.048;2023-02-15T15:45:02;19.20;63.20
53643;DHT22;39546;45.534;12.048;2023-02-15T15:51:52;18.80;64.40
53643;DHT22;39546;45.534;12.048;2023-02-15T15:57:51;18.40;65.00
53643;DHT22;39546;45.534;12.048;2023-02-15T16:03:56;17.70;66.30
53643;DHT22;39546;45.534;12.048;2023-02-15T16:10:44;17.00;68.00
53643;DHT22;39546;45.534;12.048;2023-02-15T16:16:40;16.40;69.30
53643;DHT22;39546;45.534;12.048;2023-02-15T16:22:42;15.80;70.50
53643;DHT22;39546;45.534;12.048;2023-02-15T16:28:49;15.30;71.60
53643;DHT22;39546;45.534;12.048;2023-02-15T16:40:55;14.50;73.40
53643;DHT22;39546;45.534;12.048;2023-02-15T16:46:59;14.20;74.00
53643;DHT22;39546;45.534;12.048;2023-02-15T16:53:04;14.00;74.50
53643;DHT22;39546;45.534;12.048;2023-02-15T16:59:22;13.80;75.00
53643;DHT22;39546;45.534;12.048;2023-02-15T17:11:43;13.40;75.90
53643;DHT22;39546;45.534;12.048;2023-02-15T17:17:46;13.30;76.10
53643;DHT22;39546;45.534;12.048;2023-02-15T17:23:51;13.10;76.50
53643;DHT22;39546;45.534;12.048;2023-02-15T17:30:03;13.10;76.90
53643;DHT22;39546;45.534;12.048;2023-02-15T17:36:20;13.20;77.00
53643;DHT22;39546;45.534;12.048;2023-02-15T17:42:24;13.20;77.10
53643;DHT22;39546;45.534;12.048;2023-02-15T17:48:35;13.30;77.20
53643;DHT22;39546;45.534;12.048;2023-02-15T17:54:37;13.20;77.20
53643;DHT22;39546;45.534;12.048;2023-02-15T18:01:14;13.20;77.30
53643;DHT22;39546;45.534;12.048;2023-02-15T18:07:36;13.20;77.30
53643;DHT22;39546;45.534;12.048;2023-02-15T18:13:58;13.10;77.40
53643;DHT22;39546;45.534;12.048;2023-02-15T18:20:26;13.00;77.50
53643;DHT22;39546;45.534;12.048;2023-02-15T18:26:53;13.00;77.60
53643;DHT22;39546;45.534;12.048;2023-02-15T18:32:56;12.70;77.70
53643;DHT22;39546;45.534;12.048;2023-02-15T18:38:59;12.70;77.80
53643;DHT22;39546;45.534;12.048;2023-02-15T18:51:45;12.70;77.60
53643;DHT22;39546;45.534;12.048;2023-02-15T18:58:13;12.70;77.50
53643;DHT22;39546;45.534;12.048;2023-02-15T19:04:15;12.60;77.30
53643;DHT22;39546;45.534;12.048;2023-02-15T19:10:20;12.50;77.40
53643;DHT22;39546;45.534;12.048;2023-02-15T19:16:33;12.50;77.30
53643;DHT22;39546;45.534;12.048;2023-02-15T19:22:55;12.40;77.30
53643;DHT22;39546;45.534;12.048;2023-02-15T19:29:00;12.20;77.50
53643;DHT22;39546;45.534;12.048;2023-02-15T19:35:03;12.20;77.50
53643;DHT22;39546;45.534;12.048;2023-02-15T19:41:31;12.10;77.50
53643;DHT22;39546;45.534;12.048;2023-02-15T19:47:34;12.00;77.70
53643;DHT22;39546;45.534;12.048;2023-02-15T19:53:36;11.90;77.60
53643;DHT22;39546;45.534;12.048;2023-02-15T19:59:39;11.70;77.70
53643;DHT22;39546;45.534;12.048;2023-02-15T20:05:43;11.70;77.60
53643;DHT22;39546;45.534;12.048;2023-02-15T20:11:45;11.70;77.50
53643;DHT22;39546;45.534;12.048;2023-02-15T20:17:49;11.60;77.30
53643;DHT22;39546;45.534;12.048;2023-02-15T20:23:51;11.40;77.40
53643;DHT22;39546;45.534;12.048;2023-02-15T20:29:53;11.40;77.50
53643;DHT22;39546;45.534;12.048;2023-02-15T20:35:58;11.30;77.40
53643;DHT22;39546;45.534;12.048;2023-02-15T20:42:01;11.30;77.50
53643;DHT22;39546;45.534;12.048;2023-02-15T20:48:03;11.20;77.90
53643;DHT22;39546;45.534;12.048;2023-02-15T20:54:23;11.10;77.80
53643;DHT22;39546;45.534;12.048;2023-02-15T21:00:28;11.00;77.90
53643;DHT22;39546;45.534;12.048;2023-02-15T21:06:31;10.90;77.60
53643;DHT22;39546;45.534;12.048;2023-02-15T21:12:34;10.50;78.20
53643;DHT22;39546;45.534;12.048;2023-02-15T21:18:36;10.60;78.10
53643;DHT22;39546;45.534;12.048;2023-02-15T21:24:49;10.50;77.90
53643;DHT22;39546;45.534;12.048;2023-02-15T21:30:52;10.50;77.50
53643;DHT22;39546;45.534;12.048;2023-02-15T21:36:55;10.50;77.60
53643;DHT22;39546;45.534;12.048;2023-02-15T21:42:58;10.50;77.50
53643;DHT22;39546;45.534;12.048;2023-02-15T21:49:19;10.50;78.00
53643;DHT22;39546;45.534;12.048;2023-02-15T21:55:21;10.40;77.90
53643;DHT22;39546;45.534;12.048;2023-02-15T22:01:26;10.20;77.80
53643;DHT22;39546;45.534;12.048;2023-02-15T22:07:29;10.20;77.80
53643;DHT22;39546;45.534;12.048;2023-02-15T22:13:32;10.20;77.90
53643;DHT22;39546;45.534;12.048;2023-02-15T22:19:35;10.20;77.90
53643;DHT22;39546;45.534;12.048;2023-02-15T22:25:37;10.10;77.80
53643;DHT22;39546;45.534;12.048;2023-02-15T22:31:39;10.10;77.70
53643;DHT22;39546;45.534;12.048;2023-02-15T22:37:41;10.10;77.50
53643;DHT22;39546;45.534;12.048;2023-02-15T22:43:45;10.00;77.40
53643;DHT22;39546;45.534;12.048;2023-02-15T22:49:48;10.00;77.30
53643;DHT22;39546;45.534;12.048;2023-02-15T22:55:51;9.80;77.80
53643;DHT22;39546;45.534;12.048;2023-02-15T23:01:55;9.80;78.20
53643;DHT22;39546;45.534;12.048;2023-02-15T23:07:58;9.70;78.00
53643;DHT22;39546;45.534;12.048;2023-02-15T23:14:00;9.60;78.20
53643;DHT22;39546;45.534;12.048;2023-02-15T23:20:04;9.60;78.30
53643;DHT22;39546;45.534;12.048;2023-02-15T23:26:19;9.40;78.10
53643;DHT22;39546;45.534;12.048;2023-02-15T23:32:22;9.30;78.10
53643;DHT22;39546;45.534;12.048;2023-02-15T23:38:26;9.30;78.20
53643;DHT22;39546;45.534;12.048;2023-02-15T23:44:29;9.20;78.20
53643;DHT22;39546;45.534;12.048;2023-02-15T23:50:31;9.20;78.00
53643;DHT22;39546;45.534;12.048;2023-02-15T23:56:34;9.20;77.90
